Arak, Iran
Current Conditions -  °F | °C
As of 7:00 AM on Tuesday 21 Oct 2014 (Local Time) from OIHH Reporting Station
Light Rain Light Rain  
Wind Chill: 40°   Ceiling: 3500
Heat Index: 43°   Visibility: 4mi
Dew Point: 43°   Wind: 5mph
Humidity: 100%   Direction: 10°N
Pressure: 30.03"   Gusts: NA
Location:  34.1°N, 49.4°E
Report Text: OIHH 210400Z 01004KT 7000 -RA FEW030CB BKN035OVC080 06/06 Q1017
Loading
Personal Weather Stations






























Interactive Weather Map
Tropical Storm Tracking
New forecast layout! Learn more

10-Day Weather Forecast

Advertisements
Track Severe Weather on mobile